Autopride — CQQE — position and weather

sailwx.info

Track history (hours):
 
Tides and Currents Weather Stations Pressure Air Temp Water Temp Dewpoint Dewpoint Depression Visibility Wind Speed Wind Dir Waves Ship Positions

Autopride

Last reported at 2015-Jul-08 06:33 UTC. Time now 2015-Jul-08 06:35 UTC.
Position N 49°33' W 000°09'.

Length 125 m; draft 5.1 m.

Type: Cargo ship. MMSI: 255801560.

Date/timePositionNaut miles runAvg speedWind from/ knotsBaromVisibWave heightAir tempDewpointWater temp
2015-Jul-08 06:33N 49°33' W 000°09'6 5.8
2015-Jul-08 05:34N 49°39' W 000°12'7 7.0
2015-Jul-08 04:33N 49°44' W 000°18'8 8.1
2015-Jul-08 03:33N 49°52' W 000°24'41 9.8
2015-Jul-07 23:22N 50°29' W 000°51'810.3
2015-Jul-07 22:34N 50°36' W 000°57'1212.2
2015-Jul-07 21:33N 50°46' W 001°09'1312.0
2015-Jul-07 20:30N 50°54' W 001°25'1 0.6
2015-Jul-07 19:31N 50°54' W 001°26'0 0.0
2015-Jul-07 18:05N 50°54' W 001°26'0 0.0
2015-Jul-07 17:25N 50°54' W 001°26'0 0.0
2015-Jul-07 16:25N 50°54' W 001°26'0 0.0
2015-Jul-07 15:33N 50°54' W 001°26'0 0.0
2015-Jul-07 14:33N 50°54' W 001°26'0 0.1
2015-Jul-07 13:33N 50°54' W 001°26'1 1.5
2015-Jul-07 12:33N 50°53' W 001°23'0 0.0
2015-Jul-07 11:32N 50°53' W 001°23'0 0.0
2015-Jul-07 10:29N 50°53' W 001°23'0 0.1
2015-Jul-07 09:30N 50°53' W 001°24'8 8.0
2015-Jul-07 08:33N 50°47' W 001°18'1010.3
2015-Jul-07 07:33N 50°43' W 001°03'8 7.6
2015-Jul-07 06:33N 50°39' W 000°53'10 9.6
2015-Jul-07 05:33N 50°37' W 000°38'1212.0
2015-Jul-07 04:32N 50°34' W 000°19'2310.5
2015-Jul-07 02:22N 50°35' E 000°16'8 9.4
2015-Jul-07 01:33N 50°37' E 000°28'9 8.7
2015-Jul-07 00:33N 50°41' E 000°40'9 9.3
2015-Jul-06 23:33N 50°47' E 000°52'1111.1
2015-Jul-06 22:33N 50°53' E 001°06'1212.4
2015-Jul-06 21:33N 51°01' E 001°22'1212.4
2015-Jul-06 20:33N 51°09' E 001°37'1110.9
2015-Jul-06 19:33N 51°16' E 001°49'10 9.6
2015-Jul-06 18:33N 51°24' E 001°59'9 8.6
2015-Jul-06 17:33N 51°22' E 002°12'9 8.8
2015-Jul-06 16:33N 51°22' E 002°26'8 8.2
2015-Jul-06 15:33N 51°23' E 002°39'1111.3
2015-Jul-06 14:33N 51°23' E 002°57'1010.3
2015-Jul-06 13:33N 51°20' E 003°13'1 0.8
2015-Jul-06 12:33N 51°19' E 003°13'0 0.4
2015-Jul-06 11:33N 51°19' E 003°13'0 0.0
2015-Jul-06 10:33N 51°19' E 003°13'0 0.0
2015-Jul-06 09:33N 51°19' E 003°13'0 0.0
2015-Jul-06 08:33N 51°19' E 003°13'0 0.0
2015-Jul-06 07:33N 51°19' E 003°13'0 0.0
2015-Jul-06 06:33N 51°19' E 003°13'0 0.0
2015-Jul-06 05:33N 51°19' E 003°13'0 0.0
2015-Jul-06 04:33N 51°19' E 003°13'0 0.0
2015-Jul-06 03:33N 51°19' E 003°13'1 0.6
2015-Jul-06 02:33N 51°20' E 003°13'1 1.4
2015-Jul-06 01:33N 51°21' E 003°12'1413.8
2015-Jul-06 00:33N 51°22' E 002°50'1110.5
2015-Jul-05 23:33N 51°22' E 002°33'1413.6
2015-Jul-05 22:34N 51°16' E 002°13'1313.4
2015-Jul-05 21:33N 51°09' E 001°55'9 8.8
2015-Jul-05 20:33N 51°04' E 001°43'9 9.2
2015-Jul-05 19:34N 50°58' E 001°33'1010.0
2015-Jul-05 18:34N 50°49' E 001°26'1110.5
2015-Jul-05 17:32N 50°40' E 001°16'1110.9
2015-Jul-05 16:31N 50°32' E 001°04'13311.9
2015-Jul-05 05:18N 49°56' W 002°16'6 7.9
2015-Jul-05 04:33N 49°54' W 002°25'20810.2
2015-Jul-04 08:15N 46°53' W 004°59'2613.5
2015-Jul-04 06:18N 46°28' W 004°47'11216.0
2015-Jul-03 23:17N 44°39' W 004°08'1715.6
2015-Jul-03 22:13N 44°23' W 004°01'1115.8
2015-Jul-03 21:33N 44°13' W 003°57'1616.1
2015-Jul-03 20:33N 43°58' W 003°51'76 4.4
2015-Jul-03 03:04N 45°10' W 004°26'2012.5
2015-Jul-03 01:30N 45°28' W 004°34'1612.3
2015-Jul-03 00:14N 45°43' W 004°40'812.0
2015-Jul-02 23:32N 45°52' W 004°43'1212.3
2015-Jul-02 22:33N 46°03' W 004°48'24912.8
2015-Jul-02 03:08N 49°59' W 002°49'1017.4
2015-Jul-02 02:33N 50°01' W 002°34'1917.8
2015-Jul-02 01:31N 50°02' W 002°05'1919.1
2015-Jul-02 00:32N 49°56' W 001°38'1818.8
2015-Jul-01 23:33N 49°50' W 001°11'1716.8
2015-Jul-01 22:33N 49°43' W 000°47'1515.3
2015-Jul-01 21:33N 49°37' W 000°25'1514.6
2015-Jul-01 20:33N 49°30' W 000°05'1010.2
2015-Jul-01 19:34N 49°29' E 000°10'1 1.0
2015-Jul-01 18:34N 49°28' E 000°12'0 0.0
2015-Jul-01 17:34N 49°28' E 000°12'0 0.0
2015-Jul-01 16:33N 49°28' E 000°12'0 0.0
2015-Jul-01 15:33N 49°28' E 000°12'0 0.0
2015-Jul-01 14:34N 49°28' E 000°12'0 0.0
2015-Jul-01 13:33N 49°28' E 000°12'0 0.0
2015-Jul-01 12:33N 49°28' E 000°12'0 0.0
2015-Jul-01 11:33N 49°28' E 000°12'0 0.0
2015-Jul-01 10:34N 49°28' E 000°12'0 0.0
2015-Jul-01 09:33N 49°28' E 000°12'1 1.0
2015-Jul-01 08:33N 49°29' E 000°10'4 4.2
2015-Jul-01 07:34N 49°29' E 000°04'1414.1
2015-Jul-01 06:33N 49°40' W 000°10'1615.6
2015-Jul-01 05:33N 49°53' W 000°25'1312.5
2015-Jul-01 04:33N 50°04' W 000°33'1010.6
2015-Jul-01 03:33N 50°13' W 000°40'1010.3
2015-Jul-01 02:33N 50°23' W 000°47'1010.1
2015-Jul-01 01:33N 50°32' W 000°54'1212.0
2015-Jul-01 00:33N 50°43' W 001°02'1212.2
2015-Jun-30 23:34N 50°49' W 001°18'7 6.5
2015-Jun-30 22:32N 50°54' W 001°26'0 0.0
2015-Jun-30 21:19N 50°54' W 001°26'0 0.0
2015-Jun-30 20:22N 50°54' W 001°26'0 0.0
2015-Jun-30 19:24N 50°54' W 001°26'0 0.0
2015-Jun-30 18:30N 50°54' W 001°26'2 0.5
2015-Jun-30 15:31N 50°53' W 001°23'0 0.1
2015-Jun-30 13:32N 50°53' W 001°23'1010.0
2015-Jun-30 12:33N 50°47' W 001°12'1211.5
2015-Jun-30 11:33N 50°39' W 000°58'1010.3
2015-Jun-30 10:33N 50°37' W 000°42'9 9.4
2015-Jun-30 09:33N 50°35' W 000°27'8 8.2
2015-Jun-30 08:32N 50°34' W 000°14'7 7.2
2015-Jun-30 07:33N 50°32' W 000°03'6 6.0
2015-Jun-30 06:33N 50°33' E 000°06'6 6.4
2015-Jun-30 05:33N 50°35' E 000°15'7 7.3
2015-Jun-30 04:33N 50°37' E 000°27'8 8.1
2015-Jun-30 03:33N 50°40' E 000°38'8 8.2
2015-Jun-30 02:33N 50°45' E 000°49'8 7.8
2015-Jun-30 01:33N 50°49' E 000°60'7 7.1
2015-Jun-30 00:33N 50°54' E 001°07'8 7.6
2015-Jun-29 23:33N 50°59' E 001°17'7 6.7
2015-Jun-29 22:33N 51°03' E 001°25'6 6.1
2015-Jun-29 21:33N 51°07' E 001°32'6 5.9
2015-Jun-29 20:33N 51°11' E 001°39'7 6.5
2015-Jun-29 19:33N 51°15' E 001°47'8 8.0
2015-Jun-29 18:33N 51°21' E 001°55'6 6.4
2015-Jun-29 17:33N 51°24' E 002°05'7 7.0
2015-Jun-29 16:33N 51°21' E 002°15'7 7.5
2015-Jun-29 15:33N 51°22' E 002°27'8 7.9
2015-Jun-29 14:33N 51°23' E 002°39'1211.9
2015-Jun-29 13:33N 51°24' E 002°58'10 9.8
2015-Jun-29 12:33N 51°20' E 003°13'1 0.6
2015-Jun-29 11:33N 51°19' E 003°14'1 0.6
2015-Jun-29 10:33N 51°19' E 003°13'0 0.0
2015-Jun-29 09:33N 51°19' E 003°13'0 0.0
2015-Jun-29 08:18N 51°19' E 003°13'0 0.0
2015-Jun-29 07:33N 51°19' E 003°13'0 0.0
2015-Jun-29 06:34N 51°19' E 003°13'0 0.0
2015-Jun-29 05:33N 51°19' E 003°13'0 0.0
2015-Jun-29 04:33N 51°19' E 003°13'0 0.0
2015-Jun-29 03:33N 51°19' E 003°13'1 0.6
2015-Jun-29 02:33N 51°19' E 003°13'1 1.3
2015-Jun-29 01:33N 51°20' E 003°13'1111.1
2015-Jun-29 00:33N 51°22' E 002°55'1414.0
2015-Jun-28 23:33N 51°22' E 002°33'1514.5
2015-Jun-28 22:33N 51°16' E 002°12'1414.4
2015-Jun-28 21:33N 51°09' E 001°52'1514.5
2015-Jun-28 20:33N 50°59' E 001°35'1414.5
2015-Jun-28 19:34N 50°46' E 001°24'1211.5
2015-Jun-28 18:33N 50°37' E 001°13'1311.7
2015-Jun-28 17:29N 50°29' E 000°57'1111.7
2015-Jun-28 16:33N 50°26' E 000°41'1211.4
2015-Jun-28 15:31N 50°23' E 000°23'1310.9
2015-Jun-28 14:22N 50°20' E 000°04'1010.3
2015-Jun-28 13:22N 50°17' W 000°11'9 9.9
2015-Jun-28 12:29N 50°15' W 000°25'9 9.6
2015-Jun-28 11:33N 50°12' W 000°38'23 9.4
2015-Jun-28 09:10N 50°06' W 001°12'710.2
2015-Jun-28 08:29N 50°04' W 001°22'1011.0
2015-Jun-28 07:34N 50°01' W 001°37'1212.0
2015-Jun-28 06:33N 49°58' W 001°55'  
Track history (hours):
 
Tides and Currents Weather Stations Pressure Air Temp Water Temp Dewpoint Dewpoint Depression Visibility Wind Speed Wind Dir Waves Ship Positions

Autopride

Last reported at 2015-Jul-08 06:33 UTC. Time now 2015-Jul-08 06:35 UTC.
Position N 49°33' W 000°09'.

Length 125 m; draft 5.1 m.

Type: Cargo ship. MMSI: 255801560.

Date/timePositionNaut miles runAvg speedWind from/ knotsBaromVisibWave heightAir tempDewpointWater temp
2015-Jul-08 06:33N 49°33' W 000°09'6 5.8
2015-Jul-08 05:34N 49°39' W 000°12'7 7.0
2015-Jul-08 04:33N 49°44' W 000°18'8 8.1
2015-Jul-08 03:33N 49°52' W 000°24'41 9.8
2015-Jul-07 23:22N 50°29' W 000°51'810.3
2015-Jul-07 22:34N 50°36' W 000°57'1212.2
2015-Jul-07 21:33N 50°46' W 001°09'1312.0
2015-Jul-07 20:30N 50°54' W 001°25'1 0.6
2015-Jul-07 19:31N 50°54' W 001°26'0 0.0
2015-Jul-07 18:05N 50°54' W 001°26'0 0.0
2015-Jul-07 17:25N 50°54' W 001°26'0 0.0
2015-Jul-07 16:25N 50°54' W 001°26'0 0.0
2015-Jul-07 15:33N 50°54' W 001°26'0 0.0
2015-Jul-07 14:33N 50°54' W 001°26'0 0.1
2015-Jul-07 13:33N 50°54' W 001°26'1 1.5
2015-Jul-07 12:33N 50°53' W 001°23'0 0.0
2015-Jul-07 11:32N 50°53' W 001°23'0 0.0
2015-Jul-07 10:29N 50°53' W 001°23'0 0.1
2015-Jul-07 09:30N 50°53' W 001°24'8 8.0
2015-Jul-07 08:33N 50°47' W 001°18'1010.3
2015-Jul-07 07:33N 50°43' W 001°03'8 7.6
2015-Jul-07 06:33N 50°39' W 000°53'10 9.6
2015-Jul-07 05:33N 50°37' W 000°38'1212.0
2015-Jul-07 04:32N 50°34' W 000°19'2310.5
2015-Jul-07 02:22N 50°35' E 000°16'8 9.4
2015-Jul-07 01:33N 50°37' E 000°28'9 8.7
2015-Jul-07 00:33N 50°41' E 000°40'9 9.3
2015-Jul-06 23:33N 50°47' E 000°52'1111.1
2015-Jul-06 22:33N 50°53' E 001°06'1212.4
2015-Jul-06 21:33N 51°01' E 001°22'1212.4
2015-Jul-06 20:33N 51°09' E 001°37'1110.9
2015-Jul-06 19:33N 51°16' E 001°49'10 9.6
2015-Jul-06 18:33N 51°24' E 001°59'9 8.6
2015-Jul-06 17:33N 51°22' E 002°12'9 8.8
2015-Jul-06 16:33N 51°22' E 002°26'8 8.2
2015-Jul-06 15:33N 51°23' E 002°39'1111.3
2015-Jul-06 14:33N 51°23' E 002°57'1010.3
2015-Jul-06 13:33N 51°20' E 003°13'1 0.8
2015-Jul-06 12:33N 51°19' E 003°13'0 0.4
2015-Jul-06 11:33N 51°19' E 003°13'0 0.0
2015-Jul-06 10:33N 51°19' E 003°13'0 0.0
2015-Jul-06 09:33N 51°19' E 003°13'0 0.0
2015-Jul-06 08:33N 51°19' E 003°13'0 0.0
2015-Jul-06 07:33N 51°19' E 003°13'0 0.0
2015-Jul-06 06:33N 51°19' E 003°13'0 0.0
2015-Jul-06 05:33N 51°19' E 003°13'0 0.0
2015-Jul-06 04:33N 51°19' E 003°13'0 0.0
2015-Jul-06 03:33N 51°19' E 003°13'1 0.6
2015-Jul-06 02:33N 51°20' E 003°13'1 1.4
2015-Jul-06 01:33N 51°21' E 003°12'1413.8
2015-Jul-06 00:33N 51°22' E 002°50'1110.5
2015-Jul-05 23:33N 51°22' E 002°33'1413.6
2015-Jul-05 22:34N 51°16' E 002°13'1313.4
2015-Jul-05 21:33N 51°09' E 001°55'9 8.8
2015-Jul-05 20:33N 51°04' E 001°43'9 9.2
2015-Jul-05 19:34N 50°58' E 001°33'1010.0
2015-Jul-05 18:34N 50°49' E 001°26'1110.5
2015-Jul-05 17:32N 50°40' E 001°16'1110.9
2015-Jul-05 16:31N 50°32' E 001°04'13311.9
2015-Jul-05 05:18N 49°56' W 002°16'6 7.9
2015-Jul-05 04:33N 49°54' W 002°25'20810.2
2015-Jul-04 08:15N 46°53' W 004°59'2613.5
2015-Jul-04 06:18N 46°28' W 004°47'11216.0
2015-Jul-03 23:17N 44°39' W 004°08'1715.6
2015-Jul-03 22:13N 44°23' W 004°01'1115.8
2015-Jul-03 21:33N 44°13' W 003°57'1616.1
2015-Jul-03 20:33N 43°58' W 003°51'76 4.4
2015-Jul-03 03:04N 45°10' W 004°26'2012.5
2015-Jul-03 01:30N 45°28' W 004°34'1612.3
2015-Jul-03 00:14N 45°43' W 004°40'812.0
2015-Jul-02 23:32N 45°52' W 004°43'1212.3
2015-Jul-02 22:33N 46°03' W 004°48'24912.8
2015-Jul-02 03:08N 49°59' W 002°49'1017.4
2015-Jul-02 02:33N 50°01' W 002°34'1917.8
2015-Jul-02 01:31N 50°02' W 002°05'1919.1
2015-Jul-02 00:32N 49°56' W 001°38'1818.8
2015-Jul-01 23:33N 49°50' W 001°11'1716.8
2015-Jul-01 22:33N 49°43' W 000°47'1515.3
2015-Jul-01 21:33N 49°37' W 000°25'1514.6
2015-Jul-01 20:33N 49°30' W 000°05'1010.2
2015-Jul-01 19:34N 49°29' E 000°10'1 1.0
2015-Jul-01 18:34N 49°28' E 000°12'0 0.0
2015-Jul-01 17:34N 49°28' E 000°12'0 0.0
2015-Jul-01 16:33N 49°28' E 000°12'0 0.0
2015-Jul-01 15:33N 49°28' E 000°12'0 0.0
2015-Jul-01 14:34N 49°28' E 000°12'0 0.0
2015-Jul-01 13:33N 49°28' E 000°12'0 0.0
2015-Jul-01 12:33N 49°28' E 000°12'0 0.0
2015-Jul-01 11:33N 49°28' E 000°12'0 0.0
2015-Jul-01 10:34N 49°28' E 000°12'0 0.0
2015-Jul-01 09:33N 49°28' E 000°12'1 1.0
2015-Jul-01 08:33N 49°29' E 000°10'4 4.2
2015-Jul-01 07:34N 49°29' E 000°04'1414.1
2015-Jul-01 06:33N 49°40' W 000°10'1615.6
2015-Jul-01 05:33N 49°53' W 000°25'1312.5
2015-Jul-01 04:33N 50°04' W 000°33'1010.6
2015-Jul-01 03:33N 50°13' W 000°40'1010.3
2015-Jul-01 02:33N 50°23' W 000°47'1010.1
2015-Jul-01 01:33N 50°32' W 000°54'1212.0
2015-Jul-01 00:33N 50°43' W 001°02'1212.2
2015-Jun-30 23:34N 50°49' W 001°18'7 6.5
2015-Jun-30 22:32N 50°54' W 001°26'0 0.0
2015-Jun-30 21:19N 50°54' W 001°26'0 0.0
2015-Jun-30 20:22N 50°54' W 001°26'0 0.0
2015-Jun-30 19:24N 50°54' W 001°26'0 0.0
2015-Jun-30 18:30N 50°54' W 001°26'2 0.5
2015-Jun-30 15:31N 50°53' W 001°23'0 0.1
2015-Jun-30 13:32N 50°53' W 001°23'1010.0
2015-Jun-30 12:33N 50°47' W 001°12'1211.5
2015-Jun-30 11:33N 50°39' W 000°58'1010.3
2015-Jun-30 10:33N 50°37' W 000°42'9 9.4
2015-Jun-30 09:33N 50°35' W 000°27'8 8.2
2015-Jun-30 08:32N 50°34' W 000°14'7 7.2
2015-Jun-30 07:33N 50°32' W 000°03'6 6.0
2015-Jun-30 06:33N 50°33' E 000°06'6 6.4
2015-Jun-30 05:33N 50°35' E 000°15'7 7.3
2015-Jun-30 04:33N 50°37' E 000°27'8 8.1
2015-Jun-30 03:33N 50°40' E 000°38'8 8.2
2015-Jun-30 02:33N 50°45' E 000°49'8 7.8
2015-Jun-30 01:33N 50°49' E 000°60'7 7.1
2015-Jun-30 00:33N 50°54' E 001°07'8 7.6
2015-Jun-29 23:33N 50°59' E 001°17'7 6.7
2015-Jun-29 22:33N 51°03' E 001°25'6 6.1
2015-Jun-29 21:33N 51°07' E 001°32'6 5.9
2015-Jun-29 20:33N 51°11' E 001°39'7 6.5
2015-Jun-29 19:33N 51°15' E 001°47'8 8.0
2015-Jun-29 18:33N 51°21' E 001°55'6 6.4
2015-Jun-29 17:33N 51°24' E 002°05'7 7.0
2015-Jun-29 16:33N 51°21' E 002°15'7 7.5
2015-Jun-29 15:33N 51°22' E 002°27'8 7.9
2015-Jun-29 14:33N 51°23' E 002°39'1211.9
2015-Jun-29 13:33N 51°24' E 002°58'10 9.8
2015-Jun-29 12:33N 51°20' E 003°13'1 0.6
2015-Jun-29 11:33N 51°19' E 003°14'1 0.6
2015-Jun-29 10:33N 51°19' E 003°13'0 0.0
2015-Jun-29 09:33N 51°19' E 003°13'0 0.0
2015-Jun-29 08:18N 51°19' E 003°13'0 0.0
2015-Jun-29 07:33N 51°19' E 003°13'0 0.0
2015-Jun-29 06:34N 51°19' E 003°13'0 0.0
2015-Jun-29 05:33N 51°19' E 003°13'0 0.0
2015-Jun-29 04:33N 51°19' E 003°13'0 0.0
2015-Jun-29 03:33N 51°19' E 003°13'1 0.6
2015-Jun-29 02:33N 51°19' E 003°13'1 1.3
2015-Jun-29 01:33N 51°20' E 003°13'1111.1
2015-Jun-29 00:33N 51°22' E 002°55'1414.0
2015-Jun-28 23:33N 51°22' E 002°33'1514.5
2015-Jun-28 22:33N 51°16' E 002°12'1414.4
2015-Jun-28 21:33N 51°09' E 001°52'1514.5
2015-Jun-28 20:33N 50°59' E 001°35'1414.5
2015-Jun-28 19:34N 50°46' E 001°24'1211.5
2015-Jun-28 18:33N 50°37' E 001°13'1311.7
2015-Jun-28 17:29N 50°29' E 000°57'1111.7
2015-Jun-28 16:33N 50°26' E 000°41'1211.4
2015-Jun-28 15:31N 50°23' E 000°23'1310.9
2015-Jun-28 14:22N 50°20' E 000°04'1010.3
2015-Jun-28 13:22N 50°17' W 000°11'9 9.9
2015-Jun-28 12:29N 50°15' W 000°25'9 9.6
2015-Jun-28 11:33N 50°12' W 000°38'23 9.4
2015-Jun-28 09:10N 50°06' W 001°12'710.2
2015-Jun-28 08:29N 50°04' W 001°22'1011.0
2015-Jun-28 07:34N 50°01' W 001°37'1212.0
2015-Jun-28 06:33N 49°58' W 001°55'  

Dump ship's entire track history